Time;durP1;ratioP1;P1;durP2;ratioP2;P2;SDS_P1;SDS_P2;PMS_P1;PMS_P2;Temp;Humidity;BMP_temperature;BMP_pressure;BME280_temperature;BME280_humidity;BME280_pressure;Samples;Min_cycle;Max_cycle;Signal;HPM_P1;HPM_P2
2021/09/21 00:01:50;;;;;;;3.73;3.27;;;13.50;1.00;;;;;;6319259;22;20191;-81
2021/09/21 00:04:16;;;;;;;3.47;3.17;;;13.50;1.00;;;;;;6317395;22;20497;-81
2021/09/21 00:06:41;;;;;;;3.27;2.93;;;13.80;1.00;;;;;;6316881;22;20157;-81
2021/09/21 00:09:07;;;;;;;4.30;3.27;;;13.50;1.00;;;;;;6317728;22;20244;-81
2021/09/21 00:11:33;;;;;;;4.90;3.60;;;14.90;1.00;;;;;;6319416;22;20161;-81
2021/09/21 00:14:00;;;;;;;7.10;4.20;;;13.50;1.00;;;;;;6319752;22;20233;-81
2021/09/21 00:16:26;;;;;;;3.23;2.90;;;13.50;1.00;;;;;;6320810;22;20158;-81
2021/09/21 00:18:52;;;;;;;2.87;2.63;;;13.50;1.00;;;;;;6321157;22;20571;-81
2021/09/21 00:21:17;;;;;;;3.63;3.33;;;13.80;1.00;;;;;;6318450;22;20167;-81
2021/09/21 00:23:43;;;;;;;5.40;3.47;;;13.40;1.00;;;;;;6319626;22;20152;-81
2021/09/21 00:26:09;;;;;;;4.73;3.40;;;13.40;1.00;;;;;;6317604;22;20168;-81
2021/09/21 00:28:35;;;;;;;3.37;3.07;;;;;;;;;;6320484;22;20552;-81
2021/09/21 00:31:08;;;;;;;3.00;2.80;;;13.40;1.00;;;;;;6320450;22;20156;-81
2021/09/21 00:33:46;;;;;;;5.07;3.20;;;13.70;1.00;;;;;;6319250;22;20247;-81
2021/09/21 00:36:12;;;;;;;3.40;3.10;;;13.50;1.00;;;;;;6318027;22;20145;-81
2021/09/21 00:38:38;;;;;;;3.60;3.03;;;;;;;;;;6319559;22;20156;-81
2021/09/21 00:41:04;;;;;;;3.97;3.33;;;;;;;;;;6319010;22;20157;-82
2021/09/21 00:43:29;;;;;;;4.17;3.33;;;13.40;1.00;;;;;;6319436;22;20161;-81
2021/09/21 00:45:55;;;;;;;3.40;3.10;;;14.90;1.00;;;;;;6318493;22;20154;-81
2021/09/21 00:48:21;;;;;;;3.57;3.27;;;14.50;1.00;;;;;;6318642;22;20489;-81
2021/09/21 00:50:48;;;;;;;3.50;3.20;;;15.50;1.00;;;;;;6317447;22;20183;-81
2021/09/21 00:53:15;;;;;;;4.13;3.47;;;14.80;1.00;;;;;;6319156;22;20159;-81
2021/09/21 00:55:40;;;;;;;3.57;3.27;;;13.50;1.00;;;;;;6317842;22;20165;-82
2021/09/21 00:58:06;;;;;;;3.60;3.30;;;13.40;1.00;;;;;;6319053;22;20156;-81
2021/09/21 01:00:32;;;;;;;3.33;3.03;;;13.30;1.00;;;;;;6322164;22;20304;-81
2021/09/21 01:02:57;;;;;;;4.83;3.57;;;13.40;1.00;;;;;;6320736;22;20236;-81
2021/09/21 01:05:23;;;;;;;4.23;3.47;;;;;;;;;;6317926;22;20199;-81
2021/09/21 01:07:50;;;;;;;3.80;3.40;;;13.50;1.00;;;;;;6318888;22;20164;-81
2021/09/21 01:10:19;;;;;;;4.00;3.60;;;13.40;1.00;;;;;;6320039;22;20224;-81
2021/09/21 01:12:45;;;;;;;4.27;3.60;;;13.40;1.00;;;;;;6318589;22;20152;-81
2021/09/21 01:15:11;;;;;;;4.83;3.67;;;13.40;1.00;;;;;;6319053;22;20172;-81
2021/09/21 01:17:37;;;;;;;6.30;4.00;;;13.40;1.00;;;;;;6318560;22;20175;-81
2021/09/21 01:20:05;;;;;;;4.07;3.63;;;13.30;1.00;;;;;;6319588;22;20782;-81
2021/09/21 01:22:30;;;;;;;3.80;3.40;;;13.30;1.00;;;;;;6320230;22;20189;-81
2021/09/21 01:24:56;;;;;;;3.63;3.33;;;13.30;1.00;;;;;;6318078;22;20188;-81
2021/09/21 01:27:22;;;;;;;4.00;3.60;;;13.30;1.00;;;;;;6318867;22;20190;-81
2021/09/21 01:29:47;;;;;;;3.90;3.50;;;14.90;1.00;;;;;;6318603;22;20150;-81
2021/09/21 01:32:13;;;;;;;4.00;3.60;;;13.30;1.00;;;;;;6318899;22;20153;-81
2021/09/21 01:34:39;;;;;;;4.30;3.77;;;13.30;1.00;;;;;;6317790;22;20176;-81
2021/09/21 01:37:06;;;;;;;3.40;3.10;;;13.30;1.00;;;;;;6319811;22;20164;-81
2021/09/21 01:39:32;;;;;;;3.50;3.20;;;13.20;1.00;;;;;;6322305;22;20154;-81
2021/09/21 01:41:59;;;;;;;3.83;3.47;;;13.30;1.00;;;;;;6319953;22;20160;-81
2021/09/21 01:44:25;;;;;;;3.77;3.47;;;13.10;1.00;;;;;;6319978;22;20191;-81
2021/09/21 01:46:51;;;;;;;5.10;3.70;;;13.30;1.00;;;;;;6319684;22;20140;-81
2021/09/21 01:49:19;;;;;;;3.83;3.30;;;13.30;1.00;;;;;;6319371;22;20157;-81
2021/09/21 01:52:00;;;;;;;3.80;3.40;;;;;;;;;;6320216;22;20156;-81
2021/09/21 01:54:48;;;;;;;5.63;3.37;;;13.30;1.00;;;;;;6320553;22;20156;-81
2021/09/21 01:59:58;;;;;;;4.50;4.03;;;;;;;;;;6321962;22;20151;-81
2021/09/21 02:02:24;;;;;;;4.37;3.30;;;13.30;1.00;;;;;;6320180;22;20155;-81
2021/09/21 02:04:49;;;;;;;3.60;3.30;;;13.30;1.00;;;;;;6319550;22;20188;-81
2021/09/21 02:07:15;;;;;;;3.73;3.20;;;13.30;1.00;;;;;;6320707;22;20167;-81
2021/09/21 02:09:41;;;;;;;3.53;3.23;;;;;;;;;;6318208;22;20165;-81
2021/09/21 02:12:07;;;;;;;3.53;3.23;;;;;;;;;;6322040;22;20156;-81
2021/09/21 02:14:32;;;;;;;3.77;3.43;;;13.20;1.00;;;;;;6320243;22;20157;-81
2021/09/21 02:16:58;;;;;;;3.67;3.37;;;13.40;1.00;;;;;;6321915;22;20170;-81
2021/09/21 02:19:24;;;;;;;4.47;3.57;;;13.10;1.00;;;;;;6319597;22;20172;-81
2021/09/21 02:21:51;;;;;;;3.80;3.33;;;13.60;1.00;;;;;;6319915;22;20171;-81
2021/09/21 02:24:22;;;;;;;4.13;3.73;;;13.20;1.00;;;;;;6318522;22;20192;-81
2021/09/21 02:26:49;;;;;;;6.53;3.43;;;;;;;;;;6319658;22;20121;-81
2021/09/21 02:29:15;;;;;;;3.70;3.20;;;;;;;;;;6317490;22;20168;-81
2021/09/21 02:31:41;;;;;;;4.10;3.70;;;13.30;1.00;;;;;;6315902;22;20174;-82
2021/09/21 02:34:07;;;;;;;4.63;2.97;;;13.30;1.00;;;;;;6316596;22;20180;-82
2021/09/21 02:36:32;;;;;;;4.93;3.50;;;13.20;1.00;;;;;;6316797;22;20159;-82
2021/09/21 02:38:58;;;;;;;4.10;3.40;;;;;;;;;;6317215;22;20165;-82
2021/09/21 02:41:24;;;;;;;3.70;3.33;;;;;;;;;;6318936;22;20161;-82
2021/09/21 02:43:50;;;;;;;3.90;3.60;;;13.20;1.00;;;;;;6319546;22;20152;-82
2021/09/21 02:46:16;;;;;;;5.03;3.70;;;13.30;1.00;;;;;;6319079;22;20163;-81
2021/09/21 02:48:42;;;;;;;3.80;3.43;;;14.80;1.00;;;;;;6318989;22;20241;-81
2021/09/21 02:51:08;;;;;;;5.43;3.53;;;13.20;1.00;;;;;;6319302;22;20164;-82
2021/09/21 02:53:33;;;;;;;4.27;3.87;;;14.20;1.00;;;;;;6318705;22;20159;-81
2021/09/21 02:55:59;;;;;;;3.53;3.23;;;13.10;1.00;;;;;;6318181;22;20198;-81
2021/09/21 02:58:25;;;;;;;4.10;3.70;;;13.10;1.00;;;;;;6319771;22;20159;-81
2021/09/21 03:00:54;;;;;;;3.77;3.43;;;14.80;1.00;;;;;;6317798;22;20162;-81
2021/09/21 03:03:23;;;;;;;4.43;2.97;;;13.20;1.00;;;;;;6318674;22;20263;-81
2021/09/21 03:06:05;;;;;;;3.57;3.10;;;13.10;1.00;;;;;;6319433;22;20192;-81
2021/09/21 03:08:34;;;;;;;3.53;3.23;;;13.20;1.00;;;;;;6318849;22;20163;-81
2021/09/21 03:11:19;;;;;;;4.17;3.50;;;14.90;1.00;;;;;;6319615;22;20168;-82
2021/09/21 03:17:06;;;;;;;3.73;3.23;;;13.10;1.00;;;;;;6319014;22;20175;-81
2021/09/21 03:19:24;;;;;;;6.37;3.30;;;13.10;1.00;;;;;;6320522;22;20218;-81
2021/09/21 03:21:54;;;;;;;3.67;3.30;;;13.00;1.00;;;;;;6317891;22;20156;-81
2021/09/21 03:24:20;;;;;;;3.97;3.17;;;13.00;1.00;;;;;;6318829;22;20325;-81
2021/09/21 03:26:46;;;;;;;3.17;2.83;;;12.90;1.00;;;;;;6317674;22;20156;-81
2021/09/21 03:29:12;;;;;;;3.83;3.40;;;12.90;1.00;;;;;;6317091;22;20166;-81
2021/09/21 03:31:39;;;;;;;4.60;3.10;;;;;;;;;;6318602;22;20157;-81
2021/09/21 03:34:05;;;;;;;4.27;3.53;;;;;;;;;;6319182;22;20179;-81
2021/09/21 03:36:30;;;;;;;4.70;3.77;;;12.90;1.00;;;;;;6319072;22;20175;-81
2021/09/21 03:38:56;;;;;;;3.27;2.97;;;12.80;1.00;;;;;;6320413;22;20175;-81
2021/09/21 03:41:22;;;;;;;3.03;2.83;;;13.10;1.00;;;;;;6317611;22;20157;-81
2021/09/21 03:43:48;;;;;;;3.90;3.07;;;12.80;1.00;;;;;;6320185;22;20167;-81
2021/09/21 03:46:13;;;;;;;3.43;3.13;;;12.80;1.00;;;;;;6318729;22;20171;-81
2021/09/21 03:48:39;;;;;;;4.03;3.30;;;13.10;1.00;;;;;;6318901;22;20159;-81
2021/09/21 03:51:05;;;;;;;3.10;2.80;;;12.90;1.00;;;;;;6319951;22;20725;-81
2021/09/21 03:53:30;;;;;;;4.40;3.00;;;13.10;1.00;;;;;;6319780;22;20163;-81
2021/09/21 03:55:56;;;;;;;2.97;2.77;;;12.80;1.00;;;;;;6317998;22;20414;-81
2021/09/21 03:58:22;;;;;;;4.30;3.00;;;12.80;1.00;;;;;;6317228;22;20174;-82
2021/09/21 04:00:47;;;;;;;3.57;2.60;;;12.90;1.00;;;;;;6318209;22;20168;-81
2021/09/21 04:03:13;;;;;;;3.53;3.20;;;12.70;1.00;;;;;;6317248;22;20191;-82
2021/09/21 04:05:41;;;;;;;3.63;3.07;;;12.70;1.00;;;;;;6317364;22;20188;-81
2021/09/21 04:08:07;;;;;;;4.83;3.10;;;12.90;1.00;;;;;;6316778;22;20477;-81
2021/09/21 04:10:32;;;;;;;3.87;2.90;;;12.70;1.00;;;;;;6318365;22;20160;-81
2021/09/21 04:12:58;;;;;;;3.37;3.00;;;12.70;1.00;;;;;;6320341;22;20164;-81
2021/09/21 04:15:23;;;;;;;3.87;2.93;;;12.60;1.00;;;;;;6320675;22;20208;-81
2021/09/21 04:17:49;;;;;;;3.67;3.30;;;12.60;1.00;;;;;;6319381;22;20157;-81
2021/09/21 04:20:15;;;;;;;3.33;3.03;;;12.80;1.00;;;;;;6318676;22;20147;-81
2021/09/21 04:22:43;;;;;;;2.93;2.63;;;;;;;;;;6314603;22;20168;-83
2021/09/21 04:25:10;;;;;;;3.93;2.90;;;12.40;1.00;;;;;;6318525;22;20262;-81
2021/09/21 04:27:36;;;;;;;3.33;2.80;;;12.30;1.00;;;;;;6316617;22;20163;-80
2021/09/21 04:30:03;;;;;;;4.20;3.20;;;13.20;1.00;;;;;;6317338;22;20474;-84
2021/09/21 04:32:29;;;;;;;4.23;3.20;;;12.00;1.00;;;;;;6318858;22;20232;-80
2021/09/21 04:34:55;;;;;;;5.50;3.33;;;13.30;1.00;;;;;;6319783;22;20177;-81
2021/09/21 04:37:20;;;;;;;3.70;3.17;;;11.80;1.00;;;;;;6320160;22;20569;-80
2021/09/21 04:39:46;;;;;;;5.60;3.63;;;12.00;1.00;;;;;;6319252;22;20162;-81
2021/09/21 04:42:12;;;;;;;3.17;2.87;;;13.20;1.00;;;;;;6317319;22;20201;-81
2021/09/21 04:44:38;;;;;;;3.77;3.17;;;12.00;1.00;;;;;;6318032;22;20188;-81
2021/09/21 04:47:05;;;;;;;3.47;2.87;;;11.30;1.00;;;;;;6320626;22;20153;-81
2021/09/21 04:49:30;;;;;;;6.33;3.63;;;11.30;1.00;;;;;;6320415;22;20690;-81
2021/09/21 04:51:58;;;;;;;4.00;3.57;;;11.30;1.00;;;;;;6324534;22;20153;-80
2021/09/21 04:54:24;;;;;;;5.03;3.17;;;;;;;;;;6320675;22;20208;-81
2021/09/21 04:56:50;;;;;;;4.53;3.60;;;;;;;;;;6316403;22;20171;-81
2021/09/21 04:59:16;;;;;;;3.60;3.30;;;;;;;;;;6319490;22;20165;-80
2021/09/21 05:01:42;;;;;;;5.00;3.20;;;11.00;1.00;;;;;;6317058;22;20196;-81
2021/09/21 05:04:08;;;;;;;4.77;3.63;;;10.90;1.00;;;;;;6319939;22;20660;-81
2021/09/21 05:06:33;;;;;;;5.20;4.10;;;10.90;1.00;;;;;;6320593;22;20157;-81
2021/09/21 05:08:59;;;;;;;4.33;3.80;;;11.10;1.00;;;;;;6320021;22;20149;-81
2021/09/21 05:11:25;;;;;;;4.20;3.27;;;;;;;;;;6322140;22;20153;-81
2021/09/21 05:13:51;;;;;;;4.90;4.13;;;;;;;;;;6319502;22;20152;-81
2021/09/21 05:16:17;;;;;;;4.40;3.63;;;10.60;1.00;;;;;;6317716;22;20167;-80
2021/09/21 05:18:42;;;;;;;5.70;4.10;;;10.60;1.00;;;;;;6319658;22;20172;-80
2021/09/21 05:21:08;;;;;;;4.57;3.60;;;;;;;;;;6318039;22;20168;-81
2021/09/21 05:23:34;;;;;;;5.23;3.53;;;10.50;1.00;;;;;;6320112;22;20200;-81
2021/09/21 05:26:00;;;;;;;4.97;3.53;;;;;;;;;;6316608;22;20223;-84
2021/09/21 05:28:26;;;;;;;4.27;3.47;;;10.50;1.00;;;;;;6315361;22;20168;-85
2021/09/21 05:30:53;;;;;;;5.70;4.20;;;10.50;1.00;;;;;;6317917;22;20164;-82
2021/09/21 05:33:19;;;;;;;3.93;3.53;;;;;;;;;;6316165;22;20202;-82
2021/09/21 05:35:45;;;;;;;5.53;4.20;;;;;;;;;;6312524;22;20153;-83
2021/09/21 05:38:10;;;;;;;4.03;3.63;;;10.40;1.00;;;;;;6315968;22;20168;-81
2021/09/21 05:40:36;;;;;;;4.23;3.60;;;10.40;1.00;;;;;;6316114;22;20197;-80
2021/09/21 05:43:02;;;;;;;4.70;4.20;;;10.40;1.00;;;;;;6315620;22;20191;-80
2021/09/21 05:45:27;;;;;;;5.90;4.23;;;10.50;1.00;;;;;;6322730;22;20188;-80
2021/09/21 05:47:54;;;;;;;8.30;3.63;;;10.30;1.00;;;;;;6317196;22;20168;-80
2021/09/21 05:50:20;;;;;;;4.77;3.70;;;11.70;1.00;;;;;;6315970;22;20205;-83
2021/09/21 05:52:46;;;;;;;4.13;3.67;;;;;;;;;;6314865;22;20148;-83
2021/09/21 05:55:12;;;;;;;4.50;3.60;;;10.40;1.00;;;;;;6314850;22;20157;-83
2021/09/21 05:57:40;;;;;;;4.67;3.60;;;10.50;1.00;;;;;;6317114;22;20152;-83
2021/09/21 06:00:06;;;;;;;4.10;3.70;;;10.40;1.00;;;;;;6312633;22;20164;-84
2021/09/21 06:02:32;;;;;;;6.13;4.73;;;10.40;1.00;;;;;;6313584;22;20531;-84
2021/09/21 06:04:59;;;;;;;4.17;3.57;;;;;;;;;;6315557;22;20184;-84
2021/09/21 06:07:25;;;;;;;4.93;3.73;;;10.60;1.00;;;;;;6315257;22;20153;-84
2021/09/21 06:09:50;;;;;;;3.90;3.60;;;10.60;1.00;;;;;;6314096;22;20305;-83
2021/09/21 06:12:16;;;;;;;4.57;3.53;;;10.80;1.00;;;;;;6312463;22;20153;-83
2021/09/21 06:14:42;;;;;;;3.93;3.03;;;10.60;1.00;;;;;;6312036;22;20188;-86
2021/09/21 06:17:08;;;;;;;4.53;3.43;;;10.80;1.00;;;;;;6312890;22;20156;-85
2021/09/21 06:19:33;;;;;;;4.50;3.87;;;13.00;1.00;;;;;;6312567;22;20298;-85
2021/09/21 06:21:59;;;;;;;4.20;3.70;;;;;;;;;;6310933;22;20164;-84
2021/09/21 06:24:25;;;;;;;3.93;3.47;;;10.80;1.00;;;;;;6313770;22;20193;-84
2021/09/21 06:26:51;;;;;;;4.30;3.60;;;11.00;1.00;;;;;;6313432;22;20199;-84
2021/09/21 06:29:16;;;;;;;4.73;3.40;;;11.00;1.00;;;;;;6311897;22;20161;-84
2021/09/21 06:31:43;;;;;;;3.90;3.50;;;11.00;1.00;;;;;;6312244;22;20167;-84
2021/09/21 06:34:08;;;;;;;4.03;3.53;;;11.30;1.00;;;;;;6313966;22;20187;-83
2021/09/21 06:36:34;;;;;;;4.40;3.60;;;;;;;;;;6312638;22;20195;-83
2021/09/21 06:39:00;;;;;;;4.00;3.37;;;11.20;1.00;;;;;;6312709;22;20176;-84
2021/09/21 06:41:26;;;;;;;4.47;3.87;;;11.20;1.00;;;;;;6315340;22;20527;-84
2021/09/21 06:43:51;;;;;;;3.73;3.20;;;11.30;1.00;;;;;;6313191;22;20161;-84
2021/09/21 06:46:17;;;;;;;3.60;3.30;;;11.40;1.00;;;;;;6312549;22;20191;-84
2021/09/21 06:48:43;;;;;;;4.60;3.50;;;11.50;1.00;;;;;;6312008;22;20163;-85
2021/09/21 06:51:09;;;;;;;4.17;3.40;;;11.60;1.00;;;;;;6315782;22;20160;-84
2021/09/21 06:53:35;;;;;;;5.47;3.20;;;11.70;1.00;;;;;;6311634;22;20162;-84
2021/09/21 06:56:01;;;;;;;3.90;3.50;;;14.20;1.00;;;;;;6313252;22;20388;-84
2021/09/21 06:58:27;;;;;;;3.40;3.10;;;11.80;1.00;;;;;;6313749;22;20161;-84
2021/09/21 07:00:53;;;;;;;3.90;3.17;;;;;;;;;;6315279;22;20157;-84
2021/09/21 07:03:19;;;;;;;4.67;3.40;;;12.00;1.00;;;;;;6313328;22;20210;-84
2021/09/21 07:05:44;;;;;;;4.03;3.63;;;12.10;1.00;;;;;;6313422;22;20196;-84
2021/09/21 07:08:10;;;;;;;4.23;3.83;;;12.20;1.00;;;;;;6312641;22;20239;-85
2021/09/21 07:10:36;;;;;;;5.30;3.40;;;12.30;1.00;;;;;;6312614;22;20182;-84
2021/09/21 07:13:02;;;;;;;4.87;3.30;;;12.30;1.00;;;;;;6311236;22;20588;-83
2021/09/21 07:15:27;;;;;;;4.03;3.47;;;12.70;1.00;;;;;;6317059;22;20166;-83
2021/09/21 07:17:54;;;;;;;3.47;3.17;;;12.60;1.00;;;;;;6316098;22;20166;-83
2021/09/21 07:20:24;;;;;;;5.97;3.20;;;12.60;1.00;;;;;;6318011;22;20161;-82
2021/09/21 07:22:51;;;;;;;3.30;2.97;;;12.60;1.00;;;;;;6315713;22;20161;-84
2021/09/21 07:25:20;;;;;;;3.73;3.33;;;12.70;1.00;;;;;;6313102;22;20195;-85
2021/09/21 07:27:54;;;;;;;3.37;3.07;;;12.90;1.00;;;;;;6319175;22;20245;-85
2021/09/21 07:30:20;;;;;;;3.43;3.10;;;;;;;;;;6326665;22;20143;-84
2021/09/21 07:32:46;;;;;;;6.13;3.33;;;;;;;;;;6312512;22;20162;-85
2021/09/21 07:35:12;;;;;;;4.17;3.17;;;;;;;;;;6315390;22;20493;-85
2021/09/21 07:37:38;;;;;;;3.00;2.70;;;;;;;;;;6322240;22;20161;-86
2021/09/21 07:40:08;;;;;;;3.23;2.93;;;13.30;1.00;;;;;;6312326;22;20169;-86
2021/09/21 07:42:33;;;;;;;3.43;3.03;;;13.40;1.00;;;;;;6312858;22;20497;-86
2021/09/21 07:45:00;;;;;;;3.40;2.77;;;;;;;;;;6316075;22;20219;-86
2021/09/21 07:47:27;;;;;;;3.07;2.77;;;13.40;1.00;;;;;;6292586;22;20248;-85
2021/09/21 07:49:53;;;;;;;4.97;3.03;;;13.40;1.00;;;;;;6315784;22;20160;-85
2021/09/21 07:52:19;;;;;;;6.43;3.13;;;13.30;1.00;;;;;;6317167;22;20239;-85
2021/09/21 07:54:45;;;;;;;3.97;3.17;;;13.50;1.00;;;;;;6314266;22;20186;-86
2021/09/21 07:57:10;;;;;;;5.80;3.13;;;14.00;1.00;;;;;;6313399;22;20160;-88
2021/09/21 07:59:39;;;;;;;2.80;2.37;;;13.70;1.00;;;;;;6317700;22;20167;-86
2021/09/21 08:02:08;;;;;;;3.27;2.90;;;13.80;1.00;;;;;;6315067;22;20161;-83
2021/09/21 08:04:35;;;;;;;3.40;2.90;;;14.00;1.00;;;;;;6313873;22;20189;-85
2021/09/21 08:07:00;;;;;;;3.60;2.77;;;14.00;1.00;;;;;;6315090;22;20156;-85
2021/09/21 08:09:26;;;;;;;6.23;3.03;;;14.00;1.00;;;;;;6313646;22;20608;-85
2021/09/21 08:11:52;;;;;;;3.40;2.50;;;15.10;1.00;;;;;;6315659;22;20157;-85
2021/09/21 08:14:17;;;;;;;4.77;2.97;;;14.10;1.00;;;;;;6312952;22;20160;-85
2021/09/21 08:16:43;;;;;;;2.53;2.33;;;14.20;1.00;;;;;;6314098;22;20165;-84
2021/09/21 08:19:08;;;;;;;3.47;2.77;;;14.30;1.00;;;;;;6314538;22;20566;-84
2021/09/21 08:21:34;;;;;;;3.07;2.73;;;14.40;1.00;;;;;;6314739;22;20164;-84
2021/09/21 08:24:01;;;;;;;4.37;3.10;;;14.40;1.00;;;;;;6310518;22;20190;-85
2021/09/21 08:26:26;;;;;;;5.67;2.70;;;14.50;1.00;;;;;;6315261;22;20169;-87
2021/09/21 08:28:52;;;;;;;3.20;2.90;;;14.60;1.00;;;;;;6316062;22;20155;-85
2021/09/21 08:31:18;;;;;;;3.63;2.93;;;14.50;1.00;;;;;;6315239;22;20156;-84
2021/09/21 08:33:43;;;;;;;5.07;2.80;;;14.60;1.00;;;;;;6313803;22;20184;-84
2021/09/21 08:36:09;;;;;;;4.57;2.80;;;14.60;1.00;;;;;;6314760;22;20203;-84
2021/09/21 08:38:36;;;;;;;3.27;2.67;;;;;;;;;;6290596;22;20205;-85
2021/09/21 08:41:02;;;;;;;3.50;2.60;;;14.60;1.00;;;;;;6317255;22;20161;-84
2021/09/21 08:43:28;;;;;;;3.90;2.33;;;14.60;1.00;;;;;;6315097;22;20240;-84
2021/09/21 08:45:54;;;;;;;2.73;2.40;;;14.80;1.00;;;;;;6317725;22;20190;-83
2021/09/21 08:48:19;;;;;;;5.03;2.83;;;15.00;1.00;;;;;;6316566;22;20253;-84
2021/09/21 08:50:45;;;;;;;4.10;2.40;;;15.00;1.00;;;;;;6317240;22;20163;-85
2021/09/21 08:53:11;;;;;;;4.33;2.77;;;15.00;1.00;;;;;;6314562;22;20617;-84
2021/09/21 08:55:36;;;;;;;6.43;2.67;;;15.00;1.00;;;;;;6313917;22;20162;-84
2021/09/21 08:58:02;;;;;;;3.13;2.33;;;15.00;1.00;;;;;;6315577;22;20245;-84
2021/09/21 09:00:31;;;;;;;8.00;3.30;;;15.00;1.00;;;;;;6314700;22;20170;-84
2021/09/21 09:03:16;;;;;;;3.73;3.00;;;15.00;1.00;;;;;;6315605;22;20188;-84
2021/09/21 09:05:41;;;;;;;7.43;3.07;;;14.90;1.00;;;;;;6313555;22;20190;-84
2021/09/21 09:08:07;;;;;;;4.57;2.93;;;15.10;1.00;;;;;;6313091;22;20164;-84
2021/09/21 09:10:34;;;;;;;3.67;2.50;;;15.40;1.00;;;;;;6312849;22;20500;-85
2021/09/21 09:12:59;;;;;;;2.73;2.50;;;15.20;1.00;;;;;;6313862;22;20189;-84
2021/09/21 09:15:26;;;;;;;3.83;2.90;;;15.30;1.00;;;;;;6314395;22;20362;-84
2021/09/21 09:18:05;;;;;;;4.37;2.50;;;15.40;1.00;;;;;;6314419;22;20169;-85
2021/09/21 09:20:31;;;;;;;4.53;3.30;;;;;;;;;;6319308;22;20197;-84
2021/09/21 09:22:57;;;;;;;4.93;2.90;;;15.60;1.00;;;;;;6315180;22;20173;-84
2021/09/21 09:25:24;;;;;;;4.37;3.07;;;15.60;1.00;;;;;;6315588;22;20273;-83
2021/09/21 09:27:50;;;;;;;4.90;2.93;;;15.70;1.00;;;;;;6314810;22;20219;-83
2021/09/21 09:30:24;;;;;;;3.07;2.50;;;15.60;1.00;;;;;;6316857;22;20264;-85
2021/09/21 09:32:57;;;;;;;3.20;2.70;;;15.60;1.00;;;;;;6319496;22;20167;-80
2021/09/21 09:35:27;;;;;;;5.17;2.87;;;15.60;1.00;;;;;;6315022;22;20170;-81
2021/09/21 09:37:55;;;;;;;5.70;2.90;;;15.60;1.00;;;;;;6316585;22;20159;-81
2021/09/21 09:40:21;;;;;;;3.27;2.70;;;15.80;1.00;;;;;;6317562;22;20170;-81
2021/09/21 09:42:49;;;;;;;3.30;2.80;;;;;;;;;;6316075;22;20160;-80
2021/09/21 09:45:26;;;;;;;4.10;2.73;;;15.80;1.00;;;;;;6315642;22;20623;-80
2021/09/21 09:47:53;;;;;;;2.73;2.47;;;;;;;;;;6314256;22;20189;-83
2021/09/21 09:50:34;;;;;;;3.13;2.57;;;16.00;1.00;;;;;;6317506;22;20162;-82
2021/09/21 09:53:12;;;;;;;4.03;2.83;;;16.00;1.00;;;;;;6315730;22;20208;-83
2021/09/21 09:55:39;;;;;;;3.73;2.53;;;16.00;1.00;;;;;;6315430;22;20163;-84
2021/09/21 09:58:07;;;;;;;4.23;2.43;;;16.00;1.00;;;;;;6287732;22;20178;-83
2021/09/21 10:00:33;;;;;;;3.77;2.83;;;16.00;1.00;;;;;;6316884;22;20185;-83
2021/09/21 10:03:00;;;;;;;3.47;2.53;;;16.00;1.00;;;;;;6315756;22;20503;-83
2021/09/21 10:05:30;;;;;;;3.47;2.87;;;16.10;1.00;;;;;;6318048;22;20195;-84
2021/09/21 10:07:57;;;;;;;4.83;3.03;;;16.30;1.00;;;;;;6318356;22;20168;-83
2021/09/21 10:10:23;;;;;;;3.37;2.57;;;;;;;;;;6317469;22;20185;-82
2021/09/21 10:12:53;;;;;;;6.90;2.80;;;16.30;1.00;;;;;;6317304;22;20160;-84
2021/09/21 10:15:19;;;;;;;5.17;2.43;;;;;;;;;;6318863;22;20170;-82
2021/09/21 10:17:50;;;;;;;3.50;2.83;;;16.10;1.00;;;;;;6314911;22;20187;-83
2021/09/21 10:20:17;;;;;;;4.23;2.43;;;;;;;;;;6315248;22;20188;-84
2021/09/21 10:22:51;;;;;;;2.80;2.50;;;16.30;1.00;;;;;;6318217;22;20156;-83
2021/09/21 10:25:18;;;;;;;5.60;2.70;;;;;;;;;;6317035;22;20187;-82
2021/09/21 10:27:43;;;;;;;2.40;2.20;;;16.40;1.00;;;;;;6317494;22;20160;-83
2021/09/21 10:30:10;;;;;;;6.33;3.77;;;16.70;1.00;;;;;;6318697;22;20175;-82
2021/09/21 10:32:44;;;;;;;2.43;2.10;;;16.40;1.00;;;;;;6316841;22;20157;-82
2021/09/21 10:35:16;;;;;;;3.17;2.67;;;16.40;1.00;;;;;;6314448;22;20178;-82
2021/09/21 10:37:43;;;;;;;5.00;2.87;;;;;;;;;;6317568;22;20154;-82
2021/09/21 10:40:10;;;;;;;4.47;2.80;;;16.60;1.00;;;;;;6314799;22;20162;-83
2021/09/21 10:42:48;;;;;;;2.90;2.10;;;16.90;1.00;;;;;;6318257;22;20164;-82
2021/09/21 10:45:24;;;;;;;3.70;2.70;;;17.20;1.00;;;;;;6318492;22;20193;-82
2021/09/21 10:48:05;;;;;;;3.13;2.47;;;17.20;1.00;;;;;;6317732;22;20422;-82
2021/09/21 10:50:38;;;;;;;5.77;2.50;;;17.70;1.00;;;;;;6317587;22;20206;-82
2021/09/21 10:53:07;;;;;;;3.33;2.17;;;17.90;1.00;;;;;;6316748;22;20141;-82
2021/09/21 10:55:38;;;;;;;3.77;2.73;;;17.90;1.00;;;;;;6317570;22;20200;-82
2021/09/21 10:58:16;;;;;;;2.40;2.20;;;18.00;1.00;;;;;;6317861;22;20187;-83
2021/09/21 11:00:41;;;;;;;2.40;2.20;;;18.00;1.00;;;;;;6315576;22;20185;-82
2021/09/21 11:03:12;;;;;;;3.03;2.73;;;18.10;1.00;;;;;;6315136;22;20184;-82
2021/09/21 11:05:38;;;;;;;4.07;3.00;;;;;;;;;;6316938;22;20201;-82
2021/09/21 11:08:08;;;;;;;2.33;2.13;;;18.50;1.00;;;;;;6317407;22;20191;-82
2021/09/21 11:10:43;;;;;;;3.17;2.60;;;18.80;1.00;;;;;;6316205;22;20159;-84
2021/09/21 11:13:12;;;;;;;2.80;2.60;;;19.00;1.00;;;;;;6316464;22;20212;-81
2021/09/21 11:15:39;;;;;;;2.50;2.30;;;19.00;1.00;;;;;;6315112;22;20162;-80
2021/09/21 11:18:13;;;;;;;3.20;2.33;;;18.90;1.00;;;;;;6316416;22;20159;-81
2021/09/21 11:20:49;;;;;;;2.17;1.97;;;18.90;1.00;;;;;;6315343;22;20165;-81
2021/09/21 11:23:16;;;;;;;2.40;1.90;;;19.00;1.00;;;;;;6315412;22;20162;-81
2021/09/21 11:25:44;;;;;;;5.47;2.43;;;19.30;1.00;;;;;;6315970;22;20240;-82
2021/09/21 11:28:11;;;;;;;2.07;1.87;;;19.30;1.00;;;;;;6315541;22;20163;-82
2021/09/21 11:30:38;;;;;;;2.23;2.03;;;19.50;1.00;;;;;;6313583;22;20159;-81
2021/09/21 11:33:11;;;;;;;3.93;2.17;;;19.60;1.00;;;;;;6317438;22;20165;-81
2021/09/21 11:35:37;;;;;;;2.07;1.40;;;19.90;1.00;;;;;;6314175;22;20246;-81
2021/09/21 11:38:02;;;;;;;2.80;1.90;;;20.40;1.00;;;;;;6315168;22;20166;-81
2021/09/21 11:40:32;;;;;;;2.43;2.23;;;22.00;1.00;;;;;;6314638;22;20192;-84
2021/09/21 11:42:59;;;;;;;2.75;1.98;;;22.10;1.00;;;;;;6310783;22;20217;-86
2021/09/21 11:45:25;;;;;;;3.60;1.80;;;22.60;1.00;;;;;;6311873;22;20202;-85
2021/09/21 11:47:51;;;;;;;1.98;1.65;;;22.70;1.00;;;;;;6312951;22;20210;-84
2021/09/21 11:50:23;;;;;;;3.13;2.33;;;22.30;1.00;;;;;;6314237;22;20155;-84
2021/09/21 11:52:58;;;;;;;1.95;1.85;;;21.90;1.00;;;;;;6312527;22;20197;-84
2021/09/21 11:55:28;;;;;;;3.80;1.98;;;22.30;1.00;;;;;;6312439;22;20238;-84
2021/09/21 11:57:54;;;;;;;3.05;2.22;;;23.50;1.00;;;;;;6313371;22;20474;-85
2021/09/21 12:00:51;;;;;;;1.95;1.77;;;23.90;1.00;;;;;;6311738;22;20549;-84
2021/09/21 12:03:23;;;;;;;2.40;1.88;;;23.80;1.00;;;;;;6288878;22;20217;-88
2021/09/21 12:05:51;;;;;;;3.88;1.88;;;23.40;1.00;;;;;;6310377;22;20705;-89
2021/09/21 12:08:30;;;;;;;2.38;2.17;;;23.10;1.00;;;;;;6313120;22;20515;-89
2021/09/21 12:11:12;;;;;;;2.20;2.00;;;22.20;1.00;;;;;;6315018;22;20667;-88
2021/09/21 12:13:38;;;;;;;2.33;2.13;;;21.40;1.00;;;;;;6314702;22;20175;-89
2021/09/21 12:16:06;;;;;;;4.07;1.90;;;21.40;1.00;;;;;;6285707;22;20174;-87
2021/09/21 12:18:34;;;;;;;3.30;2.37;;;20.90;1.00;;;;;;6286446;22;20179;-87
2021/09/21 12:21:10;;;;;;;3.63;2.00;;;20.90;1.00;;;;;;6283899;22;20164;-89
2021/09/21 12:23:38;;;;;;;5.22;2.20;;;21.30;1.00;;;;;;6287723;22;20251;-87
2021/09/21 12:26:05;;;;;;;3.23;2.00;;;21.50;1.00;;;;;;6315689;22;20196;-85
2021/09/21 12:28:35;;;;;;;3.20;2.07;;;21.50;1.00;;;;;;6285354;22;20166;-84
2021/09/21 12:31:12;;;;;;;1.93;1.80;;;20.80;1.00;;;;;;6283736;22;20158;-84
2021/09/21 12:33:40;;;;;;;2.40;2.17;;;20.80;1.00;;;;;;6283020;22;20185;-85
2021/09/21 12:36:05;;;;;;;2.03;1.83;;;20.70;1.00;;;;;;6286459;22;20546;-85
2021/09/21 12:38:32;;;;;;;2.03;1.80;;;20.70;1.00;;;;;;6287080;22;20321;-84
2021/09/21 12:40:59;;;;;;;1.90;1.77;;;21.00;1.00;;;;;;6310522;22;20233;-84
2021/09/21 12:43:42;;;;;;;4.83;2.03;;;20.90;1.00;;;;;;6285545;22;20181;-84
2021/09/21 12:46:12;;;;;;;2.43;2.20;;;20.30;1.00;;;;;;6285005;22;20201;-85
2021/09/21 12:48:42;;;;;;;2.10;1.90;;;20.30;1.00;;;;;;6313250;22;20186;-85
2021/09/21 12:51:09;;;;;;;2.10;1.83;;;20.90;1.00;;;;;;6311654;22;20685;-87
2021/09/21 12:53:36;;;;;;;2.05;1.83;;;21.60;1.00;;;;;;6311227;22;20209;-85
2021/09/21 12:56:04;;;;;;;2.23;2.00;;;20.50;1.00;;;;;;6312947;22;20229;-86
2021/09/21 12:58:36;;;;;;;4.53;2.00;;;20.50;1.00;;;;;;6316198;22;20168;-86
2021/09/21 13:01:16;;;;;;;3.10;1.90;;;19.70;1.00;;;;;;6315709;22;20476;-86
2021/09/21 13:03:42;;;;;;;3.80;2.20;;;19.60;1.00;;;;;;6315474;22;20165;-85
2021/09/21 13:06:08;;;;;;;4.80;2.13;;;19.50;1.00;;;;;;6319623;22;20267;-84
2021/09/21 13:08:38;;;;;;;2.53;2.30;;;19.70;1.00;;;;;;6314972;22;20589;-83
2021/09/21 13:11:04;;;;;;;2.00;1.80;;;20.10;1.00;;;;;;6317459;22;20227;-85
2021/09/21 13:13:35;;;;;;;2.00;1.70;;;20.30;1.00;;;;;;6315159;22;20159;-85
2021/09/21 13:16:03;;;;;;;2.03;1.60;;;;;;;;;;6316608;22;20233;-83
2021/09/21 13:18:29;;;;;;;2.07;1.50;;;;;;;;;;6314020;22;20230;-84